»·PEaware :: WAT380 KPDX-KOAK

WAT380 :: KPDX-KOAK

FLIGHT INFORMATION

Flight Status: Arrived
Operator:
Walker Air Transport
More flights by this operator :: More flights under this callsign
Pilot: Spencer M. (27733)
Aircraft: BOEING 737-800
(B738)
More flights by this aircraft type
Origin: KPDX Portland Intl
United States
Destination: KOAK Metro Oakland Intl
United States
More flights between these airports :: More routes between these airports
Route: MINNE5 HISKU Q5 HUPTU SPAMY WNDSR2
File this flight plan on PilotEdge
Remarks:
Altitude:
(Current/Filed)
35,000ft
Speed:
(Current/Filed)
450kts
Departed: 22-Feb-21 09:07 PM
Arrived: 22-Feb-21 10:33 PM
Distance/Time
Traveled:
473nm/1:26
Distance/Time
To Go:
Arrived

Flight Plot

Page will automatically refresh every two minutes.

Flight plan parsing failed; only flown route is shown


Map Options




Map Legend


Flown Route
Filed Route
Departure Airport
Arrival Airport
Navaid (VOR, NDB)
Fix

Horizontal Profiles

Position Reports

Time Latitude Longitude Heading Altitude Ground
Speed
22-Feb-21 20:37 45.590976 -122.596299 11 26ft 0kts
22-Feb-21 20:38 45.590976 -122.596299 11 26ft 0kts
22-Feb-21 20:39 45.590976 -122.596299 11 26ft 0kts
22-Feb-21 20:40 45.590976 -122.596299 11 26ft 0kts
22-Feb-21 20:41 45.590976 -122.596299 11 26ft 0kts
22-Feb-21 20:42 45.590976 -122.596299 11 26ft 0kts
22-Feb-21 20:43 45.590976 -122.596299 11 26ft 0kts
22-Feb-21 20:44 45.590976 -122.596299 11 26ft 0kts
22-Feb-21 20:45 45.590976 -122.596299 11 26ft 0kts
22-Feb-21 20:46 45.590976 -122.596299 11 26ft 0kts
22-Feb-21 20:47 45.590976 -122.596299 11 26ft 0kts
22-Feb-21 20:48 45.590976 -122.596299 11 26ft 0kts
22-Feb-21 20:49 45.590976 -122.596299 11 26ft 0kts
22-Feb-21 20:50 45.590763 -122.596396 16 26ft 2kts
22-Feb-21 20:51 45.590320 -122.596530 308 26ft 1kts
22-Feb-21 20:52 45.590278 -122.596414 297 26ft 0kts
22-Feb-21 20:53 45.590278 -122.596414 297 26ft 0kts
22-Feb-21 20:54 45.590382 -122.596699 296 26ft 2kts
22-Feb-21 20:55 45.591784 -122.598518 2 26ft 7kts
22-Feb-21 20:56 45.593420 -122.595624 101 29ft 16kts
22-Feb-21 20:57 45.591240 -122.589716 119 26ft 14kts
22-Feb-21 20:58 45.588862 -122.583613 119 26ft 20kts
22-Feb-21 20:59 45.586026 -122.576344 118 26ft 21kts
22-Feb-21 21:00 45.583390 -122.569748 119 26ft 14kts
22-Feb-21 21:01 45.582794 -122.567592 82 26ft 1kts
22-Feb-21 21:02 45.582801 -122.567528 80 26ft 0kts
22-Feb-21 21:03 45.582801 -122.567528 80 26ft 0kts
22-Feb-21 21:04 45.582826 -122.567374 72 26ft 0kts
22-Feb-21 21:05 45.583739 -122.567278 304 26ft 8kts
22-Feb-21 21:06 45.600304 -122.610828 294 1060ft 183kts
22-Feb-21 21:07 45.623382 -122.686981 297 3674ft 234kts
22-Feb-21 21:08 45.656191 -122.768886 295 7334ft 243kts
22-Feb-21 21:09 45.663969 -122.862515 258 10657ft 254kts
22-Feb-21 21:10 45.599834 -122.925029 192 12845ft 344kts
22-Feb-21 21:11 45.503547 -122.935528 196 15635ft 353kts
22-Feb-21 21:12 45.404638 -122.947133 197 18175ft 364kts
22-Feb-21 21:13 45.302382 -122.959019 198 20416ft 377kts
22-Feb-21 21:14 45.195310 -122.966921 193 22453ft 399kts
22-Feb-21 21:15 45.082251 -122.963353 193 23409ft 409kts
22-Feb-21 21:16 44.968619 -122.959514 193 24718ft 414kts
22-Feb-21 21:17 44.853435 -122.955568 193 26630ft 416kts
22-Feb-21 21:18 44.738224 -122.951543 193 28418ft 416kts
22-Feb-21 21:19 44.622813 -122.947584 192 29991ft 418kts
22-Feb-21 21:20 44.506166 -122.943691 192 31418ft 419kts
22-Feb-21 21:21 44.390732 -122.940138 192 32901ft 415kts
22-Feb-21 21:22 44.276343 -122.936652 192 34302ft 411kts
22-Feb-21 21:23 44.162856 -122.933288 192 35424ft 410kts
22-Feb-21 21:24 44.048646 -122.929861 192 35430ft 409kts
22-Feb-21 21:25 43.934867 -122.926524 190 35431ft 414kts
22-Feb-21 21:26 43.820098 -122.922995 190 35428ft 412kts
22-Feb-21 21:27 43.705738 -122.919531 190 35433ft 413kts
22-Feb-21 21:28 43.591217 -122.916035 190 35433ft 412kts
22-Feb-21 21:29 43.477289 -122.912627 190 35434ft 413kts
22-Feb-21 21:30 43.362521 -122.909202 189 35433ft 414kts
22-Feb-21 21:31 43.247873 -122.905785 189 35432ft 414kts
22-Feb-21 21:32 43.132731 -122.902363 189 35430ft 415kts
22-Feb-21 21:33 43.017206 -122.898948 188 35425ft 416kts
22-Feb-21 21:34 42.901909 -122.895550 188 35424ft 417kts
22-Feb-21 21:35 42.786134 -122.892163 188 35423ft 418kts
22-Feb-21 21:36 42.669764 -122.888766 188 35425ft 419kts
22-Feb-21 21:37 42.553531 -122.885358 187 35429ft 418kts
22-Feb-21 21:38 42.437690 -122.882055 187 35430ft 419kts
22-Feb-21 21:39 42.321243 -122.878764 187 35430ft 420kts
22-Feb-21 21:40 42.204872 -122.875462 187 35430ft 420kts
22-Feb-21 21:41 42.088100 -122.872141 187 35430ft 421kts
22-Feb-21 21:43 41.971562 -122.868868 185 35422ft 422kts
22-Feb-21 21:44 41.853419 -122.865545 185 35419ft 425kts
22-Feb-21 21:45 41.736012 -122.862173 185 35420ft 423kts
22-Feb-21 21:46 41.618258 -122.858882 185 35420ft 424kts
22-Feb-21 21:47 41.500705 -122.855575 185 35420ft 425kts
22-Feb-21 21:48 41.382690 -122.852271 185 35406ft 426kts
22-Feb-21 21:49 41.264330 -122.847050 183 35366ft 427kts
22-Feb-21 21:50 41.146169 -122.839714 183 35366ft 427kts
22-Feb-21 21:51 41.027731 -122.832591 183 35366ft 428kts
22-Feb-21 21:52 40.908963 -122.825520 182 35365ft 428kts
22-Feb-21 21:53 40.790754 -122.818522 182 35366ft 428kts
22-Feb-21 21:54 40.671637 -122.811484 182 35359ft 430kts
22-Feb-21 21:55 40.552239 -122.804450 182 35356ft 430kts
22-Feb-21 21:56 40.433313 -122.797491 182 35357ft 431kts
22-Feb-21 21:57 40.313674 -122.790511 182 35357ft 431kts
22-Feb-21 21:58 40.194374 -122.783573 181 35293ft 431kts
22-Feb-21 21:59 40.075255 -122.776661 181 35265ft 431kts
22-Feb-21 22:00 39.955290 -122.769710 180 35265ft 433kts
22-Feb-21 22:01 39.835606 -122.762822 180 35264ft 432kts
22-Feb-21 22:02 39.717137 -122.756064 180 35266ft 426kts
22-Feb-21 22:03 39.598861 -122.749284 180 35088ft 422kts
22-Feb-21 22:04 39.484157 -122.728505 168 32280ft 409kts
22-Feb-21 22:05 39.374221 -122.678785 161 29748ft 441kts
22-Feb-21 22:06 39.262548 -122.621790 161 27490ft 424kts
22-Feb-21 22:06 39.170021 -122.591740 172 25866ft 404kts
22-Feb-21 22:08 39.043007 -122.568556 171 23369ft 393kts
22-Feb-21 22:09 38.934899 -122.541564 169 23257ft 397kts
22-Feb-21 22:09 38.845871 -122.519135 169 22705ft 385kts
22-Feb-21 22:11 38.725175 -122.488951 169 20240ft 377kts
22-Feb-21 22:11 38.639605 -122.471726 173 18477ft 371kts
22-Feb-21 22:12 38.537308 -122.456311 173 16104ft 371kts
22-Feb-21 22:13 38.436618 -122.441012 173 13990ft 361kts
22-Feb-21 22:15 38.322191 -122.423652 172 11563ft 352kts
22-Feb-21 22:16 38.228513 -122.409480 171 10407ft 319kts
22-Feb-21 22:16 38.157567 -122.398623 171 9475ft 305kts
22-Feb-21 22:17 38.076518 -122.386245 170 8019ft 277kts
22-Feb-21 22:18 38.005682 -122.362812 145 7026ft 269kts
22-Feb-21 22:19 37.945362 -122.306237 140 7007ft 270kts
22-Feb-21 22:20 37.886428 -122.250012 141 6415ft 260kts
22-Feb-21 22:21 37.829729 -122.196125 141 5437ft 234kts
22-Feb-21 22:22 37.781755 -122.147799 128 5014ft 217kts
22-Feb-21 22:23 37.742902 -122.085482 126 4997ft 226kts
22-Feb-21 22:24 37.706224 -122.026033 125 4909ft 196kts
22-Feb-21 22:25 37.664162 -122.001226 222 4212ft 197kts
22-Feb-21 22:26 37.626941 -122.041982 197 3456ft 176kts
22-Feb-21 22:27 37.607680 -122.078929 310 2826ft 146kts
22-Feb-21 22:28 37.635242 -122.115381 312 1999ft 144kts
22-Feb-21 22:29 37.661087 -122.153900 311 1239ft 145kts
22-Feb-21 22:30 37.686785 -122.192395 310 479ft 140kts
22-Feb-21 22:31 37.709584 -122.226669 310 13ft 83kts
22-Feb-21 22:32 37.714253 -122.231324 348 12ft 0kts
22-Feb-21 22:33 37.714512 -122.231357 3 13ft 2kts
22-Feb-21 22:34 37.714032 -122.229318 129 13ft 14kts
22-Feb-21 22:35 37.711188 -122.225069 130 12ft 16kts

Navigation Log

Ident Type
Flight plan parsing failed, navigation log unavailable